Time;durP1;ratioP1;P1;durP2;ratioP2;P2;SDS_P1;SDS_P2;PMS_P1;PMS_P2;Temp;Humidity;BMP_temperature;BMP_pressure;BME280_temperature;BME280_humidity;BME280_pressure;Samples;Min_cycle;Max_cycle;Signal;HPM_P1;HPM_P2
2022/10/24 00:02:04;;;;;;;0.00;0.00;;;16.70;99.90;;;;;;5002247;28;20217;-70
2022/10/24 00:04:33;;;;;;;0.00;0.00;;;16.60;99.90;;;;;;4997862;28;20176;-70
2022/10/24 00:06:59;;;;;;;0.30;0.30;;;16.60;99.90;;;;;;4999985;28;20282;-71
2022/10/24 00:09:24;;;;;;;0.10;0.10;;;16.60;99.90;;;;;;4996200;28;20270;-71
2022/10/24 00:11:50;;;;;;;0.00;0.00;;;16.60;99.90;;;;;;5009857;28;20186;-71
2022/10/24 00:14:15;;;;;;;0.00;0.00;;;16.50;99.90;;;;;;5012676;28;20198;-72
2022/10/24 00:16:41;;;;;;;0.00;0.00;;;16.50;99.90;;;;;;4996780;28;20194;-71
2022/10/24 00:19:06;;;;;;;0.00;0.00;;;16.50;99.90;;;;;;5009703;28;20187;-71
2022/10/24 00:21:32;;;;;;;0.00;0.00;;;16.50;99.90;;;;;;4997621;28;20176;-71
2022/10/24 00:23:57;;;;;;;0.00;0.00;;;16.40;99.90;;;;;;5008059;28;20187;-72
2022/10/24 00:26:23;;;;;;;0.00;0.00;;;16.40;99.90;;;;;;5012851;28;20183;-71
2022/10/24 00:28:48;;;;;;;0.00;0.00;;;16.30;99.90;;;;;;5014927;28;20174;-72
2022/10/24 00:31:17;;;;;;;0.00;0.00;;;16.30;99.90;;;;;;5008159;28;20225;-71
2022/10/24 00:33:43;;;;;;;0.00;0.00;;;16.20;99.90;;;;;;5014790;28;20187;-71
2022/10/24 00:36:13;;;;;;;0.00;0.00;;;16.10;99.90;;;;;;5013606;28;20244;-70
2022/10/24 00:38:39;;;;;;;0.00;0.00;;;16.10;99.90;;;;;;5015028;28;20175;-71
2022/10/24 00:41:05;;;;;;;0.00;0.00;;;16.10;99.90;;;;;;5005632;28;20182;-70
2022/10/24 00:43:30;;;;;;;0.32;0.32;;;16.10;99.90;;;;;;5006211;28;20278;-71
2022/10/24 00:45:58;;;;;;;0.00;0.00;;;16.10;99.90;;;;;;5002406;28;20661;-71
2022/10/24 00:48:38;;;;;;;0.00;0.00;;;16.00;99.90;;;;;;5011368;28;20214;-70
2022/10/24 00:51:12;;;;;;;0.00;0.00;;;15.90;99.90;;;;;;5010707;28;20186;-72
2022/10/24 00:53:43;;;;;;;0.00;0.00;;;15.90;99.90;;;;;;5012360;28;20213;-71
2022/10/24 00:56:13;;;;;;;0.00;0.00;;;15.80;99.90;;;;;;5001481;28;20183;-71
2022/10/24 00:58:41;;;;;;;0.30;0.30;;;15.70;99.90;;;;;;5000614;28;20194;-73
2022/10/24 01:01:07;;;;;;;0.00;0.00;;;15.60;99.90;;;;;;5008660;28;20183;-72
2022/10/24 01:03:34;;;;;;;0.32;0.32;;;15.60;99.90;;;;;;5000714;28;20215;-72
2022/10/24 01:06:47;;;;;;;0.00;0.00;;;15.50;99.90;;;;;;5006816;28;20225;-72
2022/10/24 01:09:31;;;;;;;0.00;0.00;;;15.50;99.90;;;;;;4966619;28;20250;-71
2022/10/24 01:12:17;;;;;;;0.00;0.00;;;15.50;99.90;;;;;;4999337;28;20198;-71
2022/10/24 01:15:10;;;;;;;0.00;0.00;;;15.40;99.90;;;;;;5008649;28;20189;-71
2022/10/24 01:17:47;;;;;;;0.43;0.10;;;15.40;99.90;;;;;;4995823;28;20180;-73
2022/10/24 01:20:18;;;;;;;0.00;0.00;;;15.40;99.90;;;;;;5000788;28;20191;-73
2022/10/24 01:23:06;;;;;;;0.00;0.00;;;15.40;99.90;;;;;;4998121;28;20728;-72
2022/10/24 01:26:03;;;;;;;0.00;0.00;;;15.30;99.90;;;;;;5011238;28;20186;-72
2022/10/24 01:28:38;;;;;;;0.00;0.00;;;15.30;99.90;;;;;;4987371;28;20237;-72
2022/10/24 01:31:10;;;;;;;0.00;0.00;;;15.20;99.90;;;;;;5014035;28;20563;-72
2022/10/24 01:33:48;;;;;;;0.63;0.63;;;15.20;99.90;;;;;;4998511;28;20188;-72
2022/10/24 01:36:19;;;;;;;0.00;0.00;;;15.20;99.90;;;;;;5008471;28;20178;-71
2022/10/24 01:38:58;;;;;;;0.00;0.00;;;15.10;99.90;;;;;;5008137;28;20183;-72
2022/10/24 01:41:27;;;;;;;0.00;0.00;;;15.10;99.90;;;;;;4996243;28;20179;-71
2022/10/24 01:44:04;;;;;;;0.08;0.08;;;15.00;99.90;;;;;;5010451;28;20190;-71
2022/10/24 01:46:44;;;;;;;0.00;0.00;;;15.00;99.90;;;;;;4995050;28;20187;-72
2022/10/24 01:49:17;;;;;;;0.00;0.00;;;14.90;99.90;;;;;;4996017;28;20179;-71
2022/10/24 01:51:45;;;;;;;0.00;0.00;;;14.90;99.90;;;;;;5000382;28;20186;-72
2022/10/24 01:54:12;;;;;;;0.00;0.00;;;14.90;99.90;;;;;;5008506;28;20716;-71
2022/10/24 01:56:38;;;;;;;1.20;1.15;;;14.90;99.90;;;;;;5002541;28;20539;-71
2022/10/24 01:59:29;;;;;;;0.05;0.05;;;14.80;99.90;;;;;;5010617;28;20182;-71
2022/10/24 02:02:00;;;;;;;0.00;0.00;;;14.80;99.90;;;;;;5002897;28;20256;-71
2022/10/24 02:04:29;;;;;;;0.00;0.00;;;14.80;99.90;;;;;;4998424;28;20198;-70
2022/10/24 02:07:00;;;;;;;0.00;0.00;;;14.80;99.90;;;;;;5005061;28;20206;-71
2022/10/24 02:09:27;;;;;;;0.00;0.00;;;14.70;99.90;;;;;;5004436;28;20197;-71
2022/10/24 02:11:55;;;;;;;0.00;0.00;;;14.70;99.90;;;;;;5001706;28;20187;-71
2022/10/24 02:14:33;;;;;;;0.00;0.00;;;14.70;99.90;;;;;;5005215;28;20182;-70
2022/10/24 02:17:00;;;;;;;0.03;0.03;;;14.70;99.90;;;;;;5001039;28;20182;-70
2022/10/24 02:19:26;;;;;;;0.00;0.00;;;14.70;99.90;;;;;;5006008;28;20191;-70
2022/10/24 02:22:08;;;;;;;0.00;0.00;;;14.60;99.90;;;;;;5005229;28;20214;-70
2022/10/24 02:24:47;;;;;;;0.00;0.00;;;14.60;99.90;;;;;;5000406;28;20713;-70
2022/10/24 02:27:20;;;;;;;0.00;0.00;;;14.60;99.90;;;;;;4999988;28;20194;-69
2022/10/24 02:30:11;;;;;;;0.00;0.00;;;14.60;99.90;;;;;;4996183;28;20227;-71
2022/10/24 02:32:41;;;;;;;0.00;0.00;;;14.60;99.90;;;;;;5004149;28;20187;-71
2022/10/24 02:35:08;;;;;;;0.00;0.00;;;14.60;99.90;;;;;;5002843;28;20187;-70
2022/10/24 02:37:43;;;;;;;0.00;0.00;;;14.60;99.90;;;;;;5009820;28;20344;-70
2022/10/24 02:40:11;;;;;;;0.00;0.00;;;14.70;99.90;;;;;;5004674;28;20205;-70
2022/10/24 02:42:39;;;;;;;0.00;0.00;;;14.80;99.90;;;;;;5007374;28;20207;-71
2022/10/24 02:45:08;;;;;;;0.00;0.00;;;14.90;99.90;;;;;;5010528;28;20177;-69
2022/10/24 02:47:34;;;;;;;0.13;0.13;;;15.10;99.90;;;;;;5001707;28;20643;-70
2022/10/24 02:50:00;;;;;;;0.00;0.00;;;15.20;99.90;;;;;;5001138;28;20179;-71
2022/10/24 02:52:29;;;;;;;0.00;0.00;;;15.30;99.90;;;;;;5007781;28;20198;-71
2022/10/24 02:54:54;;;;;;;0.00;0.00;;;15.40;99.90;;;;;;5005486;28;20174;-71
2022/10/24 02:57:22;;;;;;;0.00;0.00;;;15.50;99.90;;;;;;5001896;28;20179;-71
2022/10/24 02:59:48;;;;;;;0.00;0.00;;;15.50;99.90;;;;;;5000331;28;20650;-71
2022/10/24 03:02:13;;;;;;;0.38;0.38;;;15.60;99.90;;;;;;5003801;28;20207;-71
2022/10/24 03:04:39;;;;;;;0.00;0.00;;;15.70;99.90;;;;;;4996510;28;20179;-71
2022/10/24 03:07:06;;;;;;;0.00;0.00;;;15.70;99.90;;;;;;5009624;28;20187;-70
2022/10/24 03:09:32;;;;;;;0.00;0.00;;;15.80;99.90;;;;;;4993737;28;20669;-72
2022/10/24 03:11:58;;;;;;;0.00;0.00;;;15.80;99.90;;;;;;5002758;28;20552;-72
2022/10/24 03:14:23;;;;;;;0.00;0.00;;;15.90;99.90;;;;;;4994413;28;20192;-71
2022/10/24 03:16:49;;;;;;;0.00;0.00;;;16.00;99.90;;;;;;4997965;28;20618;-72
2022/10/24 03:19:15;;;;;;;0.00;0.00;;;16.20;99.90;;;;;;4998195;28;20202;-71
2022/10/24 03:21:41;;;;;;;0.00;0.00;;;16.30;99.90;;;;;;5005120;28;20198;-71
2022/10/24 03:24:07;;;;;;;0.00;0.00;;;16.50;99.90;;;;;;5003120;28;20197;-70
2022/10/24 03:26:32;;;;;;;0.00;0.00;;;16.70;99.90;;;;;;4993782;28;20310;-72
2022/10/24 03:28:58;;;;;;;0.00;0.00;;;16.80;99.90;;;;;;4993867;28;20579;-71
2022/10/24 03:31:24;;;;;;;0.00;0.00;;;16.90;99.90;;;;;;5005823;28;20239;-71
2022/10/24 03:33:49;;;;;;;0.00;0.00;;;17.10;99.90;;;;;;5002407;28;20230;-71
2022/10/24 03:36:15;;;;;;;0.00;0.00;;;17.10;99.90;;;;;;4993558;28;20270;-71
2022/10/24 03:38:40;;;;;;;0.00;0.00;;;17.20;99.90;;;;;;5011447;28;20226;-71
2022/10/24 03:41:06;;;;;;;0.00;0.00;;;17.30;99.90;;;;;;5006232;28;20199;-73
2022/10/24 03:43:31;;;;;;;0.70;0.55;;;17.40;99.90;;;;;;5004192;28;20217;-73
2022/10/24 03:45:58;;;;;;;0.20;0.20;;;17.50;99.90;;;;;;5000829;28;20182;-71
2022/10/24 03:48:24;;;;;;;0.00;0.00;;;17.50;99.90;;;;;;4995198;28;20203;-70
2022/10/24 03:50:49;;;;;;;0.00;0.00;;;17.60;99.90;;;;;;4996940;28;20213;-70
2022/10/24 03:53:15;;;;;;;0.00;0.00;;;17.60;99.90;;;;;;5002921;28;20290;-68
2022/10/24 03:55:40;;;;;;;0.00;0.00;;;17.60;99.90;;;;;;4995108;28;20228;-68
2022/10/24 03:58:06;;;;;;;0.00;0.00;;;17.70;99.90;;;;;;5009995;28;20226;-68
2022/10/24 04:00:37;;;;;;;0.00;0.00;;;17.70;99.90;;;;;;5008780;28;20578;-69
2022/10/24 04:03:03;;;;;;;0.00;0.00;;;17.70;99.90;;;;;;5009738;28;20213;-69
2022/10/24 04:05:29;;;;;;;0.00;0.00;;;17.70;99.90;;;;;;5010857;28;20179;-70
2022/10/24 04:07:54;;;;;;;0.00;0.00;;;17.70;99.90;;;;;;5005384;28;20726;-72
2022/10/24 04:10:20;;;;;;;0.00;0.00;;;17.70;99.90;;;;;;5011861;28;20183;-70
2022/10/24 04:12:45;;;;;;;0.00;0.00;;;17.70;99.90;;;;;;5005212;28;20188;-74
2022/10/24 04:15:11;;;;;;;0.00;0.00;;;17.70;99.90;;;;;;4992066;28;20256;-74
2022/10/24 04:17:36;;;;;;;0.00;0.00;;;17.70;99.90;;;;;;5006417;28;20220;-74
2022/10/24 04:20:03;;;;;;;0.00;0.00;;;17.70;99.90;;;;;;5027595;28;20187;-71
2022/10/24 04:22:29;;;;;;;0.00;0.00;;;17.60;99.90;;;;;;5015066;28;20744;-69
2022/10/24 04:24:54;;;;;;;0.00;0.00;;;17.60;99.90;;;;;;5005894;28;20277;-72
2022/10/24 04:27:20;;;;;;;0.00;0.00;;;17.60;99.90;;;;;;4996622;28;20180;-68
2022/10/24 04:29:46;;;;;;;0.00;0.00;;;17.60;99.90;;;;;;5000008;28;20230;-73
2022/10/24 04:32:12;;;;;;;0.00;0.00;;;17.60;99.90;;;;;;4998465;28;20654;-71
2022/10/24 04:34:38;;;;;;;0.00;0.00;;;17.50;99.90;;;;;;5001291;28;20287;-74
2022/10/24 04:37:03;;;;;;;1.35;1.13;;;17.50;99.90;;;;;;4998507;28;20179;-71
2022/10/24 04:39:29;;;;;;;0.00;0.00;;;17.50;99.90;;;;;;4998934;28;20295;-70
2022/10/24 04:41:55;;;;;;;0.00;0.00;;;17.50;99.90;;;;;;5021098;28;20333;-74
2022/10/24 04:44:20;;;;;;;0.00;0.00;;;17.50;99.90;;;;;;5003103;28;20191;-74
2022/10/24 04:46:46;;;;;;;0.00;0.00;;;17.50;99.90;;;;;;4995583;28;20712;-74
2022/10/24 04:49:11;;;;;;;0.00;0.00;;;17.50;99.90;;;;;;4995491;28;20206;-74
2022/10/24 04:51:37;;;;;;;0.00;0.00;;;17.50;99.90;;;;;;4995561;28;20210;-74
2022/10/24 04:54:03;;;;;;;0.00;0.00;;;17.50;99.90;;;;;;4994342;28;20180;-74
2022/10/24 04:56:28;;;;;;;0.00;0.00;;;17.50;99.90;;;;;;4995496;28;20218;-74
2022/10/24 04:58:54;;;;;;;0.00;0.00;;;17.50;99.90;;;;;;4995330;28;20227;-73
2022/10/24 05:01:19;;;;;;;0.03;0.03;;;17.50;99.90;;;;;;4995232;28;20176;-73
2022/10/24 05:03:45;;;;;;;0.00;0.00;;;17.40;99.90;;;;;;4995176;28;20226;-74
2022/10/24 05:06:10;;;;;;;0.00;0.00;;;17.40;99.90;;;;;;4995209;28;20179;-74
2022/10/24 05:08:36;;;;;;;1.17;0.85;;;17.40;99.90;;;;;;4995302;28;20171;-74
2022/10/24 05:11:02;;;;;;;0.00;0.00;;;17.40;99.90;;;;;;4995206;28;20266;-74
2022/10/24 05:13:27;;;;;;;0.00;0.00;;;17.40;99.90;;;;;;4994935;28;20215;-71
2022/10/24 05:15:53;;;;;;;0.00;0.00;;;17.30;99.90;;;;;;4995132;28;20207;-72
2022/10/24 05:18:18;;;;;;;1.23;0.52;;;17.20;99.90;;;;;;4993686;28;20714;-70
2022/10/24 05:20:44;;;;;;;0.00;0.00;;;17.00;99.90;;;;;;4995157;28;20541;-70
2022/10/24 05:23:09;;;;;;;0.00;0.00;;;16.80;99.90;;;;;;4994926;28;20323;-70
2022/10/24 05:25:35;;;;;;;0.13;0.13;;;16.60;99.90;;;;;;4995014;28;20218;-71
2022/10/24 05:28:01;;;;;;;0.85;0.85;;;16.40;99.90;;;;;;4994969;28;20266;-71
2022/10/24 05:30:26;;;;;;;0.15;0.15;;;16.20;99.90;;;;;;4994004;28;20227;-70
2022/10/24 05:32:52;;;;;;;0.00;0.00;;;16.00;99.90;;;;;;4994890;28;20226;-71
2022/10/24 05:35:17;;;;;;;0.00;0.00;;;15.90;99.90;;;;;;4994694;28;20183;-72
2022/10/24 05:37:43;;;;;;;0.00;0.00;;;15.80;99.90;;;;;;4994785;28;20188;-72
2022/10/24 05:40:10;;;;;;;0.10;0.10;;;15.70;99.90;;;;;;4994710;28;20175;-71
2022/10/24 05:42:37;;;;;;;0.00;0.00;;;15.70;99.90;;;;;;4994552;28;20207;-71
2022/10/24 05:45:05;;;;;;;0.00;0.00;;;15.60;99.90;;;;;;4994636;28;20218;-72
2022/10/24 05:47:30;;;;;;;0.00;0.00;;;15.60;99.90;;;;;;4994468;28;20179;-72
2022/10/24 05:49:56;;;;;;;0.00;0.00;;;15.50;99.90;;;;;;4994633;28;20183;-72
2022/10/24 05:52:21;;;;;;;0.00;0.00;;;15.50;99.90;;;;;;4994418;28;20171;-72
2022/10/24 05:54:47;;;;;;;0.00;0.00;;;15.50;99.90;;;;;;4994384;28;20670;-72
2022/10/24 05:57:12;;;;;;;0.00;0.00;;;15.40;99.90;;;;;;4994277;28;20183;-72
2022/10/24 05:59:38;;;;;;;0.00;0.00;;;15.40;99.90;;;;;;4994317;28;20669;-72
2022/10/24 06:02:03;;;;;;;0.03;0.03;;;15.40;99.90;;;;;;4994243;28;20219;-72
2022/10/24 06:04:29;;;;;;;0.03;0.00;;;15.40;99.90;;;;;;4994104;28;20302;-73
2022/10/24 06:06:54;;;;;;;0.00;0.00;;;15.40;99.90;;;;;;4994232;28;20207;-73
2022/10/24 06:09:20;;;;;;;0.00;0.00;;;15.40;99.90;;;;;;4992879;28;20311;-73
2022/10/24 06:11:45;;;;;;;0.00;0.00;;;15.40;99.90;;;;;;4994082;28;20314;-73
2022/10/24 06:14:11;;;;;;;0.00;0.00;;;15.40;99.90;;;;;;4993905;28;20685;-74
2022/10/24 06:16:37;;;;;;;0.00;0.00;;;15.40;99.90;;;;;;4994055;28;20175;-74
2022/10/24 06:19:02;;;;;;;0.00;0.00;;;15.40;99.90;;;;;;4993910;28;20179;-74
2022/10/24 06:21:28;;;;;;;0.20;0.20;;;15.40;99.90;;;;;;4993662;28;20184;-74
2022/10/24 06:23:54;;;;;;;0.00;0.00;;;15.50;99.90;;;;;;4993982;28;20219;-74
2022/10/24 06:26:19;;;;;;;0.00;0.00;;;15.50;99.90;;;;;;4993879;28;20677;-74
2022/10/24 06:28:45;;;;;;;0.00;0.00;;;15.50;99.90;;;;;;4993704;28;20187;-74
2022/10/24 06:31:11;;;;;;;0.00;0.00;;;15.50;99.90;;;;;;4993485;28;20191;-75
2022/10/24 06:33:38;;;;;;;0.00;0.00;;;15.50;99.90;;;;;;4993663;28;20190;-74
2022/10/24 06:36:05;;;;;;;0.00;0.00;;;15.50;99.90;;;;;;4993654;28;20172;-74
2022/10/24 06:38:32;;;;;;;0.00;0.00;;;15.60;99.90;;;;;;4993427;28;20608;-74
2022/10/24 06:40:57;;;;;;;0.00;0.00;;;15.60;99.90;;;;;;4993607;28;20175;-74
2022/10/24 06:43:23;;;;;;;0.00;0.00;;;15.50;99.90;;;;;;4992564;28;20242;-74
2022/10/24 06:45:49;;;;;;;0.00;0.00;;;15.50;99.90;;;;;;4993482;28;20187;-74
2022/10/24 06:48:14;;;;;;;0.38;0.38;;;15.50;99.90;;;;;;4993344;28;20548;-74
2022/10/24 06:50:40;;;;;;;0.00;0.00;;;15.50;99.90;;;;;;4993377;28;20186;-74
2022/10/24 06:53:07;;;;;;;0.10;0.10;;;15.50;99.90;;;;;;4993396;28;20183;-73
2022/10/24 06:55:33;;;;;;;0.00;0.00;;;15.50;99.90;;;;;;4993121;28;20203;-74
2022/10/24 06:57:59;;;;;;;0.00;0.00;;;15.50;99.90;;;;;;4993267;28;20187;-73
2022/10/24 07:00:25;;;;;;;0.00;0.00;;;15.50;99.90;;;;;;4993156;28;20179;-74
2022/10/24 07:02:50;;;;;;;0.00;0.00;;;15.50;99.90;;;;;;4993110;28;20223;-72
2022/10/24 07:05:16;;;;;;;0.00;0.00;;;15.50;99.90;;;;;;4991845;28;20179;-72
2022/10/24 07:07:42;;;;;;;0.25;0.25;;;15.50;99.90;;;;;;4993126;28;20187;-73
2022/10/24 07:10:11;;;;;;;0.22;0.22;;;15.50;99.90;;;;;;4992988;28;20212;-72
2022/10/24 07:12:36;;;;;;;0.10;0.10;;;15.50;99.90;;;;;;4993090;28;20184;-72
2022/10/24 07:15:03;;;;;;;0.00;0.00;;;15.50;99.90;;;;;;4993050;28;20291;-73
2022/10/24 07:17:29;;;;;;;0.20;0.20;;;15.60;99.90;;;;;;4991752;28;20210;-73
2022/10/24 07:19:56;;;;;;;0.00;0.00;;;15.60;99.90;;;;;;4993054;28;20222;-72
2022/10/24 07:22:22;;;;;;;0.00;0.00;;;15.60;99.90;;;;;;4992881;28;20681;-72
2022/10/24 07:24:54;;;;;;;0.63;0.30;;;15.60;99.90;;;;;;4992907;28;20621;-72
2022/10/24 07:27:20;;;;;;;0.00;0.00;;;15.60;99.90;;;;;;4992843;28;20211;-71
2022/10/24 07:29:46;;;;;;;0.00;0.00;;;15.60;99.90;;;;;;4992753;28;20219;-73
2022/10/24 07:32:11;;;;;;;0.10;0.10;;;15.50;99.90;;;;;;4992740;28;20253;-72
2022/10/24 07:34:38;;;;;;;0.00;0.00;;;15.60;99.90;;;;;;4992850;28;20275;-71
2022/10/24 07:37:04;;;;;;;0.35;0.25;;;15.60;99.90;;;;;;4992918;28;20183;-72
2022/10/24 07:39:30;;;;;;;0.00;0.00;;;15.60;99.90;;;;;;4992702;28;20237;-73
2022/10/24 07:41:55;;;;;;;0.00;0.00;;;15.60;99.90;;;;;;4992727;28;20172;-73
2022/10/24 07:44:21;;;;;;;0.03;0.03;;;15.60;99.90;;;;;;4992710;28;20187;-73
2022/10/24 07:46:46;;;;;;;0.00;0.00;;;15.60;99.90;;;;;;4992726;28;20530;-73
2022/10/24 07:49:12;;;;;;;0.28;0.28;;;15.60;99.90;;;;;;4992624;28;20187;-73
2022/10/24 07:51:37;;;;;;;0.20;0.20;;;15.60;99.90;;;;;;4992781;28;20180;-73
2022/10/24 07:54:03;;;;;;;0.35;0.35;;;15.60;99.90;;;;;;4994664;28;20176;-74
2022/10/24 07:56:28;;;;;;;0.00;0.00;;;15.70;99.90;;;;;;4996395;28;20188;-73
2022/10/24 07:58:55;;;;;;;0.00;0.00;;;15.60;99.90;;;;;;4996536;28;20175;-74
2022/10/24 08:01:24;;;;;;;0.10;0.10;;;15.70;99.90;;;;;;4996313;28;20188;-74
2022/10/24 08:03:49;;;;;;;0.00;0.00;;;15.70;99.90;;;;;;4996292;28;20694;-74
2022/10/24 08:06:22;;;;;;;0.30;0.30;;;15.70;99.90;;;;;;4996312;28;20183;-74
2022/10/24 08:08:48;;;;;;;0.20;0.20;;;15.70;99.90;;;;;;4996250;28;20307;-73
2022/10/24 08:11:16;;;;;;;0.03;0.03;;;15.70;99.90;;;;;;4996289;28;20203;-73
2022/10/24 08:13:42;;;;;;;0.00;0.00;;;15.70;99.90;;;;;;4996305;28;20531;-74
2022/10/24 08:16:10;;;;;;;0.00;0.00;;;15.70;99.90;;;;;;4996094;28;20180;-73
2022/10/24 08:18:36;;;;;;;0.10;0.10;;;15.70;99.90;;;;;;4996290;28;20717;-73
2022/10/24 08:21:04;;;;;;;0.00;0.00;;;15.70;99.90;;;;;;4996101;28;20266;-73
2022/10/24 08:23:32;;;;;;;0.00;0.00;;;15.80;99.90;;;;;;4995807;28;20777;-73
2022/10/24 08:25:57;;;;;;;0.00;0.00;;;15.80;99.90;;;;;;4996103;28;20183;-73
2022/10/24 08:28:24;;;;;;;0.10;0.10;;;15.80;99.90;;;;;;4995886;28;20184;-74
2022/10/24 08:30:57;;;;;;;5.00;0.65;;;15.90;99.90;;;;;;4995723;28;20654;-74
2022/10/24 08:33:22;;;;;;;0.00;0.00;;;16.00;99.90;;;;;;4995746;28;20190;-73
2022/10/24 08:35:48;;;;;;;0.00;0.00;;;16.00;99.90;;;;;;4995986;28;20179;-73
2022/10/24 08:38:13;;;;;;;0.00;0.00;;;16.10;99.90;;;;;;4995641;28;20650;-73
2022/10/24 08:40:39;;;;;;;0.00;0.00;;;16.10;99.90;;;;;;4995774;28;20243;-73
2022/10/24 08:43:05;;;;;;;0.00;0.00;;;16.20;99.90;;;;;;4995669;28;20233;-72
2022/10/24 08:45:46;;;;;;;0.17;0.17;;;16.20;99.90;;;;;;4995430;28;20183;-73
2022/10/24 08:48:23;;;;;;;0.20;0.20;;;16.30;99.90;;;;;;4995565;28;20188;-73
2022/10/24 08:50:52;;;;;;;0.10;0.10;;;16.30;99.90;;;;;;4995634;28;20183;-73
2022/10/24 08:53:30;;;;;;;0.00;0.00;;;16.40;99.90;;;;;;4994235;28;20180;-74
2022/10/24 08:55:58;;;;;;;0.00;0.00;;;16.50;99.90;;;;;;4995503;28;20535;-73
2022/10/24 08:58:27;;;;;;;0.00;0.00;;;16.50;99.90;;;;;;4995309;28;20171;-74
2022/10/24 09:00:56;;;;;;;0.13;0.13;;;16.60;99.90;;;;;;4995431;28;20577;-73
2022/10/24 09:03:39;;;;;;;0.00;0.00;;;16.60;99.90;;;;;;4995242;28;20215;-73
2022/10/24 09:06:18;;;;;;;0.00;0.00;;;16.60;99.90;;;;;;4994510;28;20164;-73
2022/10/24 09:08:54;;;;;;;0.00;0.00;;;16.60;99.90;;;;;;4995407;28;20193;-73
2022/10/24 09:11:37;;;;;;;0.00;0.00;;;16.60;99.90;;;;;;4995116;28;20183;-73
2022/10/24 09:14:14;;;;;;;0.00;0.00;;;16.60;99.90;;;;;;4995260;28;20650;-73
2022/10/24 09:16:42;;;;;;;0.00;0.00;;;16.60;99.90;;;;;;4995135;28;20179;-73
2022/10/24 09:19:18;;;;;;;0.00;0.00;;;16.60;99.90;;;;;;4994936;28;20631;-72
2022/10/24 09:21:44;;;;;;;0.00;0.00;;;16.60;99.90;;;;;;4994903;28;20175;-73
2022/10/24 09:24:31;;;;;;;0.00;0.00;;;16.60;99.90;;;;;;4994853;28;20317;-72
2022/10/24 09:26:59;;;;;;;0.00;0.00;;;16.60;99.90;;;;;;4994881;28;20538;-72
2022/10/24 09:29:28;;;;;;;0.00;0.00;;;16.60;99.90;;;;;;4994603;28;20326;-73
2022/10/24 09:31:54;;;;;;;0.00;0.00;;;16.70;99.90;;;;;;4994767;28;20195;-73
2022/10/24 09:34:19;;;;;;;0.22;0.22;;;16.70;99.90;;;;;;4994605;28;20187;-72
2022/10/24 09:36:45;;;;;;;0.00;0.00;;;16.80;99.90;;;;;;4994798;28;20184;-73
2022/10/24 09:39:41;;;;;;;0.00;0.00;;;16.90;99.90;;;;;;4994540;28;20239;-73
2022/10/24 09:42:20;;;;;;;0.00;0.00;;;17.00;99.90;;;;;;4994645;28;20204;-73
2022/10/24 09:44:47;;;;;;;0.00;0.00;;;17.10;99.90;;;;;;4994610;28;20647;-73
2022/10/24 09:47:28;;;;;;;0.00;0.00;;;17.10;99.90;;;;;;4994378;28;20229;-73
2022/10/24 09:49:54;;;;;;;0.93;0.82;;;17.20;99.90;;;;;;4994517;28;20176;-73
2022/10/24 09:52:26;;;;;;;0.00;0.00;;;17.30;99.90;;;;;;4994378;28;20183;-73
2022/10/24 09:55:18;;;;;;;0.00;0.00;;;17.30;99.90;;;;;;4994252;28;20175;-72
2022/10/24 09:57:44;;;;;;;0.00;0.00;;;17.30;99.90;;;;;;4994540;28;20203;-72
2022/10/24 10:00:26;;;;;;;0.00;0.00;;;17.30;99.90;;;;;;4994247;28;20183;-72
2022/10/24 10:03:03;;;;;;;0.00;0.00;;;17.40;99.90;;;;;;4994080;28;20298;-73
2022/10/24 10:05:45;;;;;;;0.00;0.00;;;17.40;99.90;;;;;;4994068;28;20238;-72
2022/10/24 10:08:18;;;;;;;0.00;0.00;;;17.30;99.90;;;;;;4994139;28;20270;-72
2022/10/24 10:11:07;;;;;;;0.00;0.00;;;17.40;99.90;;;;;;4994197;28;20207;-72
2022/10/24 10:13:44;;;;;;;0.00;0.00;;;17.40;99.90;;;;;;4993991;28;20612;-72
2022/10/24 10:16:27;;;;;;;0.00;0.00;;;17.50;99.90;;;;;;4994022;28;20380;-72
2022/10/24 10:19:15;;;;;;;0.05;0.05;;;17.50;99.90;;;;;;4993978;28;20183;-72
2022/10/24 10:22:00;;;;;;;0.38;0.38;;;17.60;99.90;;;;;;4993849;28;20182;-72
2022/10/24 10:24:38;;;;;;;0.10;0.10;;;17.60;99.90;;;;;;4993719;28;20203;-71
2022/10/24 10:27:24;;;;;;;0.00;0.00;;;17.60;99.90;;;;;;4993916;28;20175;-72
2022/10/24 10:30:13;;;;;;;0.00;0.00;;;17.60;99.90;;;;;;4993730;28;20274;-72
2022/10/24 10:33:09;;;;;;;0.00;0.00;;;17.60;99.90;;;;;;4993725;28;20180;-72
2022/10/24 10:35:40;;;;;;;0.10;0.10;;;17.60;99.90;;;;;;4993688;28;20183;-73
2022/10/24 10:38:31;;;;;;;0.00;0.00;;;17.50;99.90;;;;;;4993656;28;20195;-73
2022/10/24 10:41:24;;;;;;;0.00;0.00;;;17.50;99.90;;;;;;4993634;28;20190;-73
2022/10/24 10:44:22;;;;;;;0.00;0.00;;;17.50;99.90;;;;;;4993425;28;20215;-73
2022/10/24 10:47:00;;;;;;;0.05;0.05;;;17.50;99.90;;;;;;4993596;28;20176;-73
2022/10/24 10:49:38;;;;;;;0.10;0.10;;;17.50;99.90;;;;;;4993414;28;20520;-72
2022/10/24 10:52:24;;;;;;;0.00;0.00;;;17.40;99.90;;;;;;4993489;28;20198;-73
2022/10/24 10:55:08;;;;;;;0.00;0.00;;;17.40;99.90;;;;;;4993362;28;20183;-73
2022/10/24 10:57:50;;;;;;;0.00;0.00;;;17.50;99.90;;;;;;4993142;28;20179;-73
2022/10/24 11:00:42;;;;;;;0.00;0.00;;;17.50;99.90;;;;;;4993326;28;20207;-73
2022/10/24 11:03:25;;;;;;;0.00;0.00;;;17.60;99.90;;;;;;4993063;28;20530;-72
2022/10/24 11:06:22;;;;;;;0.00;0.00;;;17.70;99.90;;;;;;4993118;28;20186;-73
2022/10/24 11:09:15;;;;;;;0.00;0.00;;;17.70;99.90;;;;;;4993176;28;20187;-73
2022/10/24 11:11:45;;;;;;;0.00;0.00;;;17.80;99.90;;;;;;4993186;28;20255;-73
2022/10/24 11:14:35;;;;;;;0.00;0.00;;;17.80;99.90;;;;;;4992991;28;20171;-73
2022/10/24 11:17:21;;;;;;;0.00;0.00;;;17.90;99.90;;;;;;4993061;28;20180;-73
2022/10/24 11:20:02;;;;;;;0.00;0.00;;;18.10;99.90;;;;;;4993081;28;20182;-73
2022/10/24 11:23:04;;;;;;;0.00;0.00;;;18.20;99.90;;;;;;4992827;28;20677;-72
2022/10/24 11:25:41;;;;;;;0.00;0.00;;;18.30;99.90;;;;;;4992888;28;20190;-72
2022/10/24 11:28:18;;;;;;;0.00;0.00;;;18.30;99.90;;;;;;4994432;28;20654;-73
2022/10/24 11:30:51;;;;;;;0.00;0.00;;;18.30;99.90;;;;;;4999328;28;20223;-73
2022/10/24 11:33:26;;;;;;;0.00;0.00;;;18.30;99.90;;;;;;4999463;28;20179;-73
2022/10/24 11:36:07;;;;;;;0.00;0.00;;;18.40;99.90;;;;;;4999256;28;20187;-73
2022/10/24 11:38:40;;;;;;;0.00;0.00;;;18.40;99.90;;;;;;4999306;28;20185;-73
2022/10/24 11:41:47;;;;;;;0.22;0.08;;;18.40;99.90;;;;;;4999422;28;20187;-73
2022/10/24 11:44:57;;;;;;;0.00;0.00;;;18.50;99.90;;;;;;4992872;28;20258;-73
2022/10/24 11:47:23;;;;;;;0.00;0.00;;;18.60;99.90;;;;;;4993617;28;20314;-73
2022/10/24 11:50:02;;;;;;;0.00;0.00;;;18.50;99.90;;;;;;4999309;28;20663;-73
2022/10/24 11:52:33;;;;;;;0.00;0.00;;;18.60;99.90;;;;;;4999238;28;20175;-73
2022/10/24 11:55:15;;;;;;;0.00;0.00;;;18.60;99.90;;;;;;4999222;28;20563;-73
2022/10/24 11:57:44;;;;;;;0.00;0.00;;;18.60;99.90;;;;;;4997937;28;20218;-73
2022/10/24 12:00:19;;;;;;;1.25;0.20;;;18.50;99.90;;;;;;4999136;28;20523;-72
2022/10/24 12:03:16;;;;;;;0.08;0.08;;;18.60;99.90;;;;;;4999275;28;20250;-73
2022/10/24 12:05:47;;;;;;;0.00;0.00;;;18.50;99.90;;;;;;4999269;28;20225;-73
2022/10/24 12:08:12;;;;;;;0.00;0.00;;;18.60;99.90;;;;;;4998888;28;20234;-73
2022/10/24 12:10:52;;;;;;;0.00;0.00;;;18.50;99.90;;;;;;4999192;28;20183;-73
2022/10/24 12:13:32;;;;;;;0.00;0.00;;;18.60;99.90;;;;;;4999024;28;20183;-73
2022/10/24 12:16:36;;;;;;;0.00;0.00;;;18.60;99.90;;;;;;4999121;28;20270;-73
2022/10/24 12:19:08;;;;;;;0.00;0.00;;;18.70;99.90;;;;;;4999012;28;20631;-73
2022/10/24 12:21:39;;;;;;;0.00;0.00;;;18.70;99.90;;;;;;5000616;28;20183;-74
2022/10/24 12:24:05;;;;;;;0.00;0.00;;;18.80;99.90;;;;;;4998562;28;20223;-72
2022/10/24 12:26:33;;;;;;;0.10;0.10;;;18.70;99.90;;;;;;4999549;28;20207;-75
2022/10/24 12:29:19;;;;;;;0.00;0.00;;;18.70;99.90;;;;;;4998416;28;20219;-73
2022/10/24 12:31:44;;;;;;;0.00;0.00;;;18.70;99.90;;;;;;5014380;28;20194;-74
2022/10/24 12:34:17;;;;;;;0.00;0.00;;;18.80;99.90;;;;;;5018156;28;20249;-75
2022/10/24 12:37:02;;;;;;;0.00;0.00;;;18.80;99.90;;;;;;5014886;28;20672;-75
2022/10/24 12:39:46;;;;;;;0.00;0.00;;;18.80;99.90;;;;;;5016722;28;20302;-74
2022/10/24 12:42:16;;;;;;;0.55;0.43;;;18.90;99.90;;;;;;4995090;28;20227;-74
2022/10/24 12:44:42;;;;;;;0.00;0.00;;;18.90;99.90;;;;;;4995481;28;20171;-76
2022/10/24 12:47:32;;;;;;;0.05;0.05;;;19.10;99.90;;;;;;4996896;28;20188;-74
2022/10/24 12:50:20;;;;;;;0.00;0.00;;;19.10;99.90;;;;;;5010526;28;20167;-75
2022/10/24 12:52:46;;;;;;;0.00;0.00;;;19.30;99.90;;;;;;5008104;28;20179;-75
2022/10/24 12:55:36;;;;;;;0.00;0.00;;;19.40;99.90;;;;;;5015102;28;20390;-75
2022/10/24 12:58:28;;;;;;;0.00;0.00;;;19.40;99.90;;;;;;4995582;28;20175;-75
2022/10/24 13:00:56;;;;;;;0.00;0.00;;;19.50;99.90;;;;;;4995512;28;20282;-76
2022/10/24 13:03:52;;;;;;;0.08;0.00;;;19.50;99.90;;;;;;4995207;28;20245;-75
2022/10/24 13:06:30;;;;;;;0.00;0.00;;;19.50;99.90;;;;;;5007510;28;20183;-75
2022/10/24 13:09:41;;;;;;;0.00;0.00;;;19.60;99.90;;;;;;5011526;28;20193;-73
2022/10/24 13:12:51;;;;;;;0.00;0.00;;;19.70;99.90;;;;;;5009267;28;20250;-72